Rockhampton, Australia
Current Conditions -  °F | °C
As of 8:30 PM on Tuesday 21 Oct 2014 (Local Time) from YBRK Reporting Station
Clear Clear  
Wind Chill: 70°   Ceiling: Unl
Heat Index: 70°   Visibility: 6mi
Dew Point: 57°   Wind: 10mph
Humidity: 64%   Direction: 110°ESE
Pressure: 30.21"   Gusts: NA
Location:  23.38°S, 150.51°E
Report Text: YBRK 211030Z 11009KT CAVOK 21/14 Q1023
Loading
Personal Weather Stations






























Interactive Weather Map
Tropical Storm Tracking
New forecast layout! Learn more

10-Day Weather Forecast

Advertisements
Track Severe Weather on mobile